createdAt,value
2023-02-05T00:01:01.074Z,4.18
2023-02-05T00:03:29.115Z,4.09
2023-02-05T00:05:57.200Z,4.21
2023-02-05T00:08:27.610Z,4.25
2023-02-05T00:10:55.967Z,4.17
2023-02-05T00:13:25.253Z,4.24
2023-02-05T00:15:54.461Z,4.23
2023-02-05T00:18:31.830Z,4.30
2023-02-05T00:20:59.774Z,4.18
2023-02-05T00:23:28.102Z,4.28
2023-02-05T00:25:56.232Z,4.30
2023-02-05T00:28:35.415Z,4.36
2023-02-05T00:31:13.673Z,4.27
2023-02-05T00:33:41.838Z,4.34
2023-02-05T00:36:16.269Z,4.30
2023-02-05T00:38:45.217Z,4.34
2023-02-05T00:41:17.142Z,4.22
2023-02-05T00:43:49.256Z,4.31
2023-02-05T00:46:18.276Z,4.36
2023-02-05T00:48:46.574Z,4.38
2023-02-05T00:51:14.812Z,4.39
2023-02-05T00:53:42.723Z,4.51
2023-02-05T00:56:17.689Z,4.51
2023-02-05T00:58:48.998Z,4.43
2023-02-05T01:01:20.560Z,4.53
2023-02-05T01:03:48.482Z,4.56
2023-02-05T01:06:16.546Z,4.53
2023-02-05T01:08:46.891Z,4.59
2023-02-05T01:11:15.041Z,4.63
2023-02-05T01:13:42.992Z,4.64
2023-02-05T01:16:15.720Z,4.66
2023-02-05T01:18:43.800Z,4.69
2023-02-05T01:21:15.835Z,4.70
2023-02-05T01:23:43.920Z,4.65
2023-02-05T01:26:11.842Z,4.67
2023-02-05T01:28:39.770Z,4.67
2023-02-05T01:31:07.707Z,4.65
2023-02-05T01:33:37.027Z,4.68
2023-02-05T01:36:05.351Z,4.70
2023-02-05T01:38:33.392Z,4.69
2023-02-05T01:41:03.570Z,4.73
2023-02-05T01:43:31.491Z,4.75
2023-02-05T01:46:26.028Z,4.68
2023-02-05T01:49:00.027Z,4.71
2023-02-05T01:51:31.353Z,4.65
2023-02-05T01:53:59.506Z,4.62
2023-02-05T01:56:32.622Z,4.57
2023-02-05T01:59:05.007Z,4.53
2023-02-05T02:01:33.879Z,4.50
2023-02-05T02:04:05.529Z,4.49
2023-02-05T02:06:35.244Z,4.45
2023-02-05T02:09:04.079Z,4.42
2023-02-05T02:11:37.020Z,4.41
2023-02-05T02:14:07.645Z,4.43
2023-02-05T02:16:37.547Z,4.42
2023-02-05T02:19:18.655Z,4.47
2023-02-05T02:22:12.862Z,4.49
2023-02-05T02:25:05.759Z,4.45
2023-02-05T02:27:45.392Z,4.51
2023-02-05T02:30:21.364Z,4.51
2023-02-05T02:32:59.236Z,4.56
2023-02-05T02:35:33.901Z,4.57
2023-02-05T02:38:10.040Z,4.58
2023-02-05T02:40:43.506Z,4.56
2023-02-05T02:43:17.618Z,4.62
2023-02-05T02:45:52.396Z,4.65
2023-02-05T02:48:23.770Z,4.65
2023-02-05T02:51:01.245Z,4.68
2023-02-05T02:53:35.041Z,4.68
2023-02-05T02:56:05.960Z,4.75
2023-02-05T02:58:41.269Z,4.74
2023-02-05T03:01:13.287Z,4.79
2023-02-05T03:03:47.276Z,4.81
2023-02-05T03:06:16.446Z,4.89
2023-02-05T03:08:51.552Z,4.79
2023-02-05T03:11:19.706Z,4.87
2023-02-05T03:13:49.470Z,4.87
2023-02-05T03:16:19.449Z,4.86
2023-02-05T03:18:47.825Z,4.93
2023-02-05T03:21:19.297Z,4.93
2023-02-05T03:23:47.216Z,5.01
2023-02-05T03:26:26.708Z,5.06
2023-02-05T03:28:57.444Z,5.05
2023-02-05T03:31:36.161Z,5.08
2023-02-05T03:34:18.903Z,5.16
2023-02-05T03:36:56.070Z,5.21
2023-02-05T03:39:33.184Z,5.19
2023-02-05T03:42:12.343Z,5.20
2023-02-05T03:45:04.227Z,5.20
2023-02-05T03:47:50.276Z,5.21
2023-02-05T03:50:23.090Z,5.27
2023-02-05T03:52:57.710Z,5.28
2023-02-05T03:55:30.075Z,5.33
2023-02-05T03:58:01.707Z,5.33
2023-02-05T04:00:33.432Z,5.37
2023-02-05T04:03:01.477Z,5.37
2023-02-05T04:05:29.282Z,5.38
2023-02-05T04:07:57.141Z,5.39
2023-02-05T04:10:26.145Z,5.31
2023-02-05T04:12:54.144Z,5.38
2023-02-05T04:15:21.946Z,5.37
2023-02-05T04:17:51.263Z,5.44
2023-02-05T04:20:19.521Z,5.42
2023-02-05T04:22:47.416Z,5.46
2023-02-05T04:25:15.320Z,5.51
2023-02-05T04:27:43.188Z,5.53
2023-02-05T04:30:12.792Z,5.57
2023-02-05T04:32:42.613Z,5.57
2023-02-05T04:35:11.974Z,5.56
2023-02-05T04:37:39.943Z,5.65
2023-02-05T04:40:48.086Z,5.62
2023-02-05T04:43:34.154Z,5.55
2023-02-05T04:46:06.780Z,5.63
2023-02-05T04:48:34.886Z,5.63
2023-02-05T04:51:09.191Z,5.68
2023-02-05T04:53:37.505Z,5.68
2023-02-05T04:56:07.194Z,5.74
2023-02-05T04:58:35.576Z,5.74
2023-02-05T05:01:03.891Z,5.76
2023-02-05T05:03:32.278Z,5.74
2023-02-05T05:06:04.881Z,5.76
2023-02-05T05:08:39.196Z,5.81
2023-02-05T05:11:08.959Z,5.76
2023-02-05T05:13:41.810Z,5.83
2023-02-05T05:16:12.048Z,5.84
2023-02-05T05:18:41.103Z,5.88
2023-02-05T05:21:09.516Z,5.93
2023-02-05T05:23:39.051Z,5.96
2023-02-05T05:26:08.037Z,5.93
2023-02-05T05:28:38.977Z,5.90
2023-02-05T05:31:08.569Z,5.96
2023-02-05T05:33:36.641Z,5.92
2023-02-05T05:36:06.678Z,5.97
2023-02-05T05:38:34.629Z,5.96
2023-02-05T05:41:21.588Z,6.05
2023-02-05T05:43:51.514Z,6.04
2023-02-05T05:46:22.993Z,6.00
2023-02-05T05:48:52.172Z,5.94
2023-02-05T05:51:21.305Z,5.84
2023-02-05T05:53:52.419Z,5.78
2023-02-05T05:56:22.241Z,5.79
2023-02-05T05:58:51.293Z,5.71
2023-02-05T06:01:22.030Z,5.75
2023-02-05T06:03:50.611Z,5.78
2023-02-05T06:06:19.485Z,5.75
2023-02-05T06:08:47.260Z,5.66
2023-02-05T06:11:15.328Z,5.61
2023-02-05T06:13:44.642Z,5.55
2023-02-05T06:16:19.324Z,5.46
2023-02-05T06:18:47.386Z,5.42
2023-02-05T06:21:15.958Z,5.38
2023-02-05T06:23:43.953Z,5.36
2023-02-05T06:26:12.063Z,5.34
2023-02-05T06:28:40.326Z,5.35
2023-02-05T06:31:09.747Z,5.31
2023-02-05T06:33:37.931Z,5.28
2023-02-05T06:36:06.759Z,5.29
2023-02-05T06:38:34.639Z,5.30
2023-02-05T06:41:04.635Z,5.28
2023-02-05T06:43:32.582Z,5.29
2023-02-05T06:46:00.900Z,5.27
2023-02-05T06:48:30.281Z,5.32
2023-02-05T06:50:58.272Z,5.34
2023-02-05T06:53:26.121Z,5.34
2023-02-05T06:55:56.301Z,5.32
2023-02-05T06:58:24.233Z,5.37
2023-02-05T07:00:53.218Z,5.33
2023-02-05T07:03:22.348Z,5.43
2023-02-05T07:05:51.713Z,5.42
2023-02-05T07:08:20.693Z,5.41
2023-02-05T07:10:48.505Z,5.47
2023-02-05T07:13:16.460Z,5.44
2023-02-05T07:15:44.740Z,5.43
2023-02-05T07:18:13.803Z,5.43
2023-02-05T07:20:42.733Z,5.41
2023-02-05T07:23:12.121Z,5.44
2023-02-05T07:25:40.368Z,5.45
2023-02-05T07:28:09.971Z,5.46
2023-02-05T07:30:41.970Z,5.48
2023-02-05T07:33:10.440Z,5.50
2023-02-05T07:35:39.384Z,5.49
2023-02-05T07:38:07.348Z,5.53
2023-02-05T07:40:38.032Z,5.52
2023-02-05T07:43:06.991Z,5.57
2023-02-05T07:45:35.031Z,5.55
2023-02-05T07:48:03.116Z,5.57
2023-02-05T07:50:31.040Z,5.55
2023-02-05T07:52:59.216Z,5.60
2023-02-05T07:55:27.291Z,5.57
2023-02-05T07:57:56.508Z,5.63
2023-02-05T08:00:24.905Z,5.59
2023-02-05T08:02:52.776Z,5.63
2023-02-05T08:05:20.640Z,5.60
2023-02-05T08:07:48.482Z,5.68
2023-02-05T08:10:18.603Z,5.68
2023-02-05T08:12:46.546Z,5.66
2023-02-05T08:15:16.136Z,5.69
2023-02-05T08:17:44.034Z,5.73
2023-02-05T08:20:16.454Z,5.73
2023-02-05T08:22:45.528Z,5.76
2023-02-05T08:25:15.449Z,5.77
2023-02-05T08:27:44.041Z,5.82
2023-02-05T08:30:16.053Z,5.83
2023-02-05T08:32:49.782Z,5.81
2023-02-05T08:35:18.565Z,5.83
2023-02-05T08:37:46.485Z,5.81
2023-02-05T08:40:17.138Z,5.81
2023-02-05T08:42:45.596Z,5.83
2023-02-05T08:45:16.534Z,5.85
2023-02-05T08:47:44.569Z,5.86
2023-02-05T08:50:13.032Z,5.90
2023-02-05T08:52:41.436Z,5.91
2023-02-05T08:55:09.696Z,5.88
2023-02-05T08:57:40.007Z,5.94
2023-02-05T09:00:09.417Z,5.95
2023-02-05T09:02:41.919Z,5.95
2023-02-05T09:05:10.224Z,5.93
2023-02-05T09:07:42.025Z,5.96
2023-02-05T09:10:11.730Z,6.01
2023-02-05T09:12:40.886Z,6.03
2023-02-05T09:15:09.869Z,5.99
2023-02-05T09:17:40.483Z,6.02
2023-02-05T09:20:09.425Z,6.01
2023-02-05T09:22:42.867Z,6.04
2023-02-05T09:25:12.203Z,6.03
2023-02-05T09:27:40.047Z,6.09
2023-02-05T09:30:10.397Z,6.09
2023-02-05T09:32:39.940Z,6.05
2023-02-05T09:35:08.443Z,5.99
2023-02-05T09:37:36.404Z,6.00
2023-02-05T09:40:21.429Z,6.06
2023-02-05T09:42:59.366Z,6.27
2023-02-05T09:45:40.082Z,6.29
2023-02-05T09:51:10.842Z,6.93
2023-02-05T09:53:44.744Z,7.14
2023-02-05T09:56:15.512Z,7.18
2023-02-05T09:58:47.229Z,7.07
2023-02-05T10:01:20.360Z,6.69
2023-02-05T10:03:51.007Z,6.81
2023-02-05T10:06:37.592Z,6.63
2023-02-05T10:09:18.414Z,6.64
2023-02-05T10:11:54.905Z,6.80
2023-02-05T10:14:33.569Z,7.28
2023-02-05T10:17:29.553Z,7.43
2023-02-05T10:20:11.344Z,7.65
2023-02-05T10:22:50.639Z,7.92
2023-02-05T10:25:37.276Z,7.80
2023-02-05T10:28:20.009Z,7.43
2023-02-05T10:30:56.760Z,7.25
2023-02-05T10:33:53.085Z,7.17
2023-02-05T10:36:23.192Z,7.07
2023-02-05T10:38:57.532Z,7.00
2023-02-05T10:41:29.102Z,6.94
2023-02-05T10:44:06.217Z,6.96
2023-02-05T10:46:36.372Z,7.09
2023-02-05T10:49:09.386Z,7.17
2023-02-05T10:51:41.874Z,6.88
2023-02-05T10:54:23.631Z,6.92
2023-02-05T10:56:51.816Z,7.00
2023-02-05T10:59:25.876Z,7.21
2023-02-05T11:01:56.986Z,7.26
2023-02-05T11:04:34.286Z,7.18
2023-02-05T11:07:06.136Z,7.44
2023-02-05T11:09:36.490Z,8.19
2023-02-05T11:12:07.071Z,7.80
2023-02-05T11:14:37.507Z,7.88
2023-02-05T11:17:20.302Z,8.01
2023-02-05T11:20:00.073Z,7.83
2023-02-05T11:22:30.428Z,7.87
2023-02-05T11:25:16.919Z,7.86
2023-02-05T11:27:51.524Z,7.78
2023-02-05T11:30:49.683Z,8.17
2023-02-05T11:33:32.415Z,8.19
2023-02-05T11:36:09.327Z,8.02
2023-02-05T11:38:45.459Z,8.61
2023-02-05T11:41:27.126Z,9.12
2023-02-05T11:43:56.295Z,9.08
2023-02-05T11:46:25.752Z,8.79
2023-02-05T11:48:59.216Z,8.66
2023-02-05T11:51:44.567Z,8.35
2023-02-05T11:54:21.631Z,8.16
2023-02-05T11:57:08.510Z,8.16
2023-02-05T11:59:36.977Z,7.99
2023-02-05T12:02:29.421Z,8.08
2023-02-05T12:05:01.989Z,8.33
2023-02-05T12:07:36.185Z,8.71
2023-02-05T12:10:04.375Z,9.05
2023-02-05T12:12:44.909Z,9.53
2023-02-05T12:15:22.143Z,9.64
2023-02-05T12:17:59.097Z,9.82
2023-02-05T12:20:31.197Z,9.48
2023-02-05T12:23:32.617Z,9.58
2023-02-05T12:26:27.529Z,9.12
2023-02-05T12:29:11.841Z,9.00
2023-02-05T12:31:52.598Z,8.93
2023-02-05T12:34:38.355Z,8.84
2023-02-05T12:37:19.720Z,8.90
2023-02-05T12:39:53.938Z,10.05
2023-02-05T12:42:35.336Z,9.21
2023-02-05T12:45:31.502Z,9.12
2023-02-05T12:48:12.750Z,8.80
2023-02-05T12:50:54.339Z,8.56
2023-02-05T12:53:44.422Z,9.40
2023-02-05T12:56:28.563Z,8.91
2023-02-05T12:59:03.444Z,9.28
2023-02-05T13:01:39.656Z,8.77
2023-02-05T13:04:13.121Z,8.97
2023-02-05T13:06:47.832Z,8.80
2023-02-05T13:09:24.086Z,8.73
2023-02-05T13:11:57.624Z,8.66
2023-02-05T13:14:31.884Z,8.47
2023-02-05T13:17:06.342Z,8.57
2023-02-05T13:19:41.154Z,8.42
2023-02-05T13:22:32.435Z,8.28
2023-02-05T13:25:30.015Z,9.14
2023-02-05T13:28:29.203Z,8.85
2023-02-05T13:30:59.120Z,8.80
2023-02-05T13:33:29.439Z,8.77
2023-02-05T13:36:14.355Z,8.55
2023-02-05T13:38:55.367Z,9.00
2023-02-05T13:41:59.318Z,9.04
2023-02-05T13:44:53.018Z,8.64
2023-02-05T13:47:51.580Z,9.01
2023-02-05T13:50:51.271Z,9.24
2023-02-05T13:53:37.671Z,9.32
2023-02-05T13:56:22.295Z,9.60
2023-02-05T13:58:52.914Z,9.23
2023-02-05T14:01:25.465Z,9.40
2023-02-05T14:03:59.787Z,9.50
2023-02-05T14:06:36.886Z,9.43
2023-02-05T14:09:07.947Z,9.50
2023-02-05T14:11:54.491Z,9.51
2023-02-05T14:14:28.923Z,9.31
2023-02-05T14:16:57.868Z,9.13
2023-02-05T14:19:52.319Z,9.86
2023-02-05T14:22:38.885Z,9.36
2023-02-05T14:25:42.597Z,8.59
2023-02-05T14:28:35.321Z,8.46
2023-02-05T14:31:05.932Z,8.68
2023-02-05T14:33:39.355Z,8.50
2023-02-05T14:36:42.618Z,8.26
2023-02-05T14:39:26.429Z,8.33
2023-02-05T14:41:59.113Z,8.29
2023-02-05T14:44:31.116Z,8.41
2023-02-05T14:47:05.806Z,8.47
2023-02-05T14:49:42.870Z,8.06
2023-02-05T14:52:31.644Z,8.18
2023-02-05T14:55:04.826Z,7.95
2023-02-05T14:57:49.188Z,7.78
2023-02-05T15:00:28.573Z,7.75
2023-02-05T15:03:25.023Z,7.83
2023-02-05T15:06:01.140Z,7.80
2023-02-05T15:09:13.719Z,7.96
2023-02-05T15:11:55.783Z,7.95
2023-02-05T15:14:44.794Z,7.76
2023-02-05T15:17:54.369Z,7.71
2023-02-05T15:20:32.243Z,7.45
2023-02-05T15:23:21.981Z,7.46
2023-02-05T15:26:02.798Z,7.31
2023-02-05T15:28:36.767Z,7.27
2023-02-05T15:31:16.539Z,7.25
2023-02-05T15:33:54.446Z,7.22
2023-02-05T15:36:33.886Z,7.18
2023-02-05T15:39:21.213Z,7.19
2023-02-05T15:41:49.855Z,7.13
2023-02-05T15:44:28.181Z,7.05
2023-02-05T15:46:59.046Z,6.99
2023-02-05T15:49:33.474Z,6.91
2023-02-05T15:52:03.680Z,6.79
2023-02-05T15:54:35.738Z,6.79
2023-02-05T15:57:07.062Z,6.75
2023-02-05T15:59:37.528Z,6.74
2023-02-05T16:02:17.494Z,6.66
2023-02-05T16:04:46.162Z,6.60
2023-02-05T16:07:23.490Z,6.56
2023-02-05T16:09:54.433Z,6.51
2023-02-05T16:12:25.134Z,6.36
2023-02-05T16:15:02.638Z,6.43
2023-02-05T16:17:44.307Z,6.41
2023-02-05T16:20:26.697Z,6.38
2023-02-05T16:22:59.322Z,6.33
2023-02-05T16:25:38.108Z,6.17
2023-02-05T16:28:13.077Z,6.09
2023-02-05T16:30:43.881Z,6.01
2023-02-05T16:33:33.257Z,6.04
2023-02-05T16:36:06.934Z,5.94
2023-02-05T16:38:37.009Z,5.92
2023-02-05T16:41:20.827Z,5.95
2023-02-05T16:43:49.657Z,5.83
2023-02-05T16:46:30.283Z,5.84
2023-02-05T16:49:01.434Z,5.82
2023-02-05T16:51:55.202Z,5.78
2023-02-05T16:54:30.232Z,5.72
2023-02-05T16:57:04.133Z,5.66
2023-02-05T16:59:36.167Z,5.66
2023-02-05T17:02:21.813Z,5.59
2023-02-05T17:04:58.110Z,5.56
2023-02-05T17:07:26.716Z,5.48
2023-02-05T17:10:17.736Z,5.28
2023-02-05T17:13:06.126Z,5.37
2023-02-05T17:15:37.639Z,5.36
2023-02-05T17:18:29.207Z,5.36
2023-02-05T17:21:30.900Z,5.25
2023-02-05T17:24:03.384Z,5.23
2023-02-05T17:26:35.303Z,5.21
2023-02-05T17:29:08.136Z,5.28
2023-02-05T17:31:39.344Z,5.21
2023-02-05T17:34:08.793Z,5.40
2023-02-05T17:36:37.417Z,5.25
2023-02-05T17:39:05.940Z,5.15
2023-02-05T17:41:55.785Z,5.23
2023-02-05T17:44:23.963Z,5.25
2023-02-05T17:46:54.256Z,5.05
2023-02-05T17:49:23.868Z,5.07
2023-02-05T17:51:51.835Z,5.03
2023-02-05T17:54:22.986Z,4.92
2023-02-05T17:56:51.608Z,4.94
2023-02-05T17:59:22.256Z,5.03
2023-02-05T18:01:51.707Z,5.03
2023-02-05T18:04:20.598Z,4.76
2023-02-05T18:06:51.218Z,4.80
2023-02-05T18:09:22.470Z,4.86
2023-02-05T18:11:50.566Z,4.72
2023-02-05T18:14:21.214Z,4.80
2023-02-05T18:16:49.342Z,4.84
2023-02-05T18:19:23.286Z,5.09
2023-02-05T18:21:52.805Z,5.09
2023-02-05T18:24:20.881Z,5.04
2023-02-05T18:26:52.739Z,5.35
2023-02-05T18:29:21.735Z,5.29
2023-02-05T18:31:50.229Z,5.32
2023-02-05T18:34:18.434Z,5.11
2023-02-05T18:36:46.630Z,5.15
2023-02-05T18:39:15.998Z,5.04
2023-02-05T18:41:43.921Z,5.14
2023-02-05T18:44:12.515Z,5.03
2023-02-05T18:46:40.729Z,5.09
2023-02-05T18:49:08.830Z,5.10
2023-02-05T18:51:38.634Z,5.00
2023-02-05T18:54:07.519Z,5.00
2023-02-05T18:56:36.967Z,5.02
2023-02-05T18:59:10.231Z,4.90
2023-02-05T19:01:45.460Z,4.77
2023-02-05T19:04:15.576Z,4.92
2023-02-05T19:06:44.756Z,4.86
2023-02-05T19:09:13.285Z,4.81
2023-02-05T19:11:44.175Z,4.65
2023-02-05T19:14:13.988Z,4.46
2023-02-05T19:16:43.296Z,4.37
2023-02-05T19:19:13.675Z,4.17
2023-02-05T19:21:43.993Z,3.93
2023-02-05T19:24:14.045Z,3.82
2023-02-05T19:26:44.343Z,3.69
2023-02-05T19:29:16.303Z,3.51
2023-02-05T19:31:46.033Z,3.20
2023-02-05T19:34:14.770Z,3.19
2023-02-05T19:36:45.152Z,3.20
2023-02-05T19:39:17.491Z,3.10
2023-02-05T19:41:51.958Z,3.20
2023-02-05T19:44:24.782Z,3.14
2023-02-05T19:47:06.086Z,3.07
2023-02-05T19:49:34.095Z,3.05
2023-02-05T19:52:04.152Z,3.13
2023-02-05T19:54:32.173Z,3.01
2023-02-05T19:57:01.752Z,3.02
2023-02-05T19:59:30.773Z,2.97
2023-02-05T20:01:58.786Z,2.81
2023-02-05T20:04:28.768Z,2.84
2023-02-05T20:06:59.258Z,2.71
2023-02-05T20:09:28.350Z,2.63
2023-02-05T20:11:56.798Z,2.74
2023-02-05T20:14:28.552Z,2.64
2023-02-05T20:16:57.050Z,2.26
2023-02-05T20:19:25.416Z,2.13
2023-02-05T20:21:57.895Z,2.45
2023-02-05T20:24:26.955Z,2.11
2023-02-05T20:26:57.004Z,2.13
2023-02-05T20:29:54.783Z,1.89
2023-02-05T20:32:28.578Z,1.85
2023-02-05T20:35:02.924Z,1.86
2023-02-05T20:37:32.045Z,1.80
2023-02-05T20:40:00.969Z,1.97
2023-02-05T20:42:30.806Z,2.13
2023-02-05T20:45:00.248Z,1.73
2023-02-05T20:47:29.648Z,1.67
2023-02-05T20:49:59.330Z,1.74
2023-02-05T20:52:27.377Z,1.70
2023-02-05T20:54:57.250Z,1.99
2023-02-05T20:57:25.391Z,2.22
2023-02-05T20:59:54.641Z,1.99
2023-02-05T21:02:24.398Z,2.34
2023-02-05T21:04:52.891Z,2.11
2023-02-05T21:07:25.092Z,2.20
2023-02-05T21:09:53.553Z,2.30
2023-02-05T21:12:31.134Z,2.10
2023-02-05T21:14:59.303Z,2.20
2023-02-05T21:17:29.915Z,1.96
2023-02-05T21:20:03.878Z,2.00
2023-02-05T21:22:36.455Z,1.62
2023-02-05T21:25:04.468Z,1.57
2023-02-05T21:27:36.162Z,1.38
2023-02-05T21:30:06.743Z,1.62
2023-02-05T21:32:36.210Z,1.66
2023-02-05T21:35:04.224Z,1.54
2023-02-05T21:37:33.856Z,1.51
2023-02-05T21:40:09.144Z,1.42
2023-02-05T21:42:39.828Z,1.41
2023-02-05T21:45:08.677Z,1.38
2023-02-05T21:47:38.298Z,1.32
2023-02-05T21:50:07.279Z,1.13
2023-02-05T21:52:36.704Z,0.95
2023-02-05T21:55:10.152Z,0.84
2023-02-05T21:57:38.282Z,0.94
2023-02-05T22:00:06.681Z,1.13
2023-02-05T22:02:34.537Z,0.98
2023-02-05T22:05:04.504Z,1.12
2023-02-05T22:07:32.626Z,0.98
2023-02-05T22:10:00.651Z,0.74
2023-02-05T22:12:29.624Z,0.55
2023-02-05T22:14:57.585Z,0.31
2023-02-05T22:17:26.646Z,0.22
2023-02-05T22:19:54.467Z,0.27
2023-02-05T22:22:23.727Z,0.25
2023-02-05T22:24:51.721Z,0.21
2023-02-05T22:27:19.982Z,0.51
2023-02-05T22:29:58.426Z,0.15
2023-02-05T22:32:26.363Z,0.11
2023-02-05T22:35:02.710Z,0.32
2023-02-05T22:37:38.376Z,0.07
2023-02-05T22:40:07.770Z,-0.05
2023-02-05T22:42:35.866Z,-0.13
2023-02-05T22:45:04.555Z,-0.17
2023-02-05T22:47:32.557Z,-0.28
2023-02-05T22:50:00.446Z,0.40
2023-02-05T22:52:28.336Z,-0.11
2023-02-05T22:54:57.877Z,-0.03
2023-02-05T22:57:25.914Z,-0.23
2023-02-05T22:59:54.336Z,-0.22
2023-02-05T23:02:22.172Z,-0.12
2023-02-05T23:04:50.094Z,0.01
2023-02-05T23:07:18.142Z,-0.21
2023-02-05T23:09:46.111Z,-0.26
2023-02-05T23:12:17.298Z,-0.26
2023-02-05T23:14:46.123Z,-0.13
2023-02-05T23:17:14.437Z,0.16
2023-02-05T23:19:44.768Z,-0.30
2023-02-05T23:22:12.733Z,-0.37
2023-02-05T23:24:40.550Z,-0.63
2023-02-05T23:27:08.480Z,-0.62
2023-02-05T23:29:41.982Z,-0.51
2023-02-05T23:32:14.999Z,-0.68
2023-02-05T23:34:43.173Z,-0.34
2023-02-05T23:37:14.216Z,-0.39
2023-02-05T23:39:42.108Z,-0.14
2023-02-05T23:42:11.774Z,0.11
2023-02-05T23:44:42.939Z,-0.01
2023-02-05T23:47:11.083Z,-0.02
2023-02-05T23:49:39.367Z,0.08
2023-02-05T23:52:07.469Z,0.32
2023-02-05T23:54:35.970Z,0.43
2023-02-05T23:57:04.259Z,0.35
2023-02-05T23:59:32.737Z,0.48
